Terminal Aerodrome Forecast
Issued by NWS

Current Version | Previous Version | Graphics & Text | Print | Product List | Glossary On
Versions: 1 2 3 4 5 6 7 8 9 10 11 12 13 14 15 16 17
000
FTUS41 KILN 200300 AAB
TAFLCK
TAF AMD
KLCK 200357Z 2004/2024 27011KT P6SM VCSH BKN040 OVC060
     FM200500 27014G24KT P6SM VCSH OVC025
     FM201000 25012KT P6SM OVC035
     FM201400 25014G22KT P6SM OVC035=

USA.gov is the U.S. government's official web portal to all federal, state and local government web resources and services.